KCLL

Easterwood Field Airport

College Station, Texas, USA
METAR KCLL 231353Z 35004KT 3/4SM BR OVC002 08/08 A3023 RMK AO2 SLP236 T00830083
Observed Flight Rules
Feb-23 @ 13:53 UTC (31 minutes ago) Instrument Flight Rules
Wind Visibility Clouds Conditions
350° at 4 knots 3/4 miles
  • Overcast at 200' AGL
  • Mist
Temperatures Readings
Current 8°C / 46°F
Dewpoint 8°C / 46°F
Humidity 100%
Altimeter 30.23" Hg
Pressure 1023.6 hPa
Elevation 96
METAR KCLL 231353Z 35004KT 3/4SM BR OVC002 08/08 A3023 RMK AO2 SLP236 T00830083
Observed Flight Rules
Feb-23 @ 13:53 UTC
(31 minutes ago)
LIFR
Wind Visibility
350° at 4 knots 3/4 miles
Clouds
  • Overcast at 200' AGL
Conditions
  • Mist
Temperature Dewpoint
8°C / 46°F 8°C / 46°F
Humidity Altimeter Pressure
100% 30.23" Hg 1023.6 hPa